Time;durP1;ratioP1;P1;durP2;ratioP2;P2;SDS_P1;SDS_P2;PMS_P1;PMS_P2;Temp;Humidity;BMP_temperature;BMP_pressure;BME280_temperature;BME280_humidity;BME280_pressure;Samples;Min_cycle;Max_cycle;Signal;HPM_P1;HPM_P2
2021/12/16 00:11:05;;;;;;;4.50;3.20;;;;;;;17.46;43.30;103092.56;4862437;29;20112;-74
2021/12/16 00:32:45;;;;;;;7.57;4.47;;;;;;;17.54;42.98;103086.34;4862052;29;20061;-74
2021/12/16 00:35:13;;;;;;;6.05;3.75;;;;;;;17.37;43.46;103086.88;4845203;29;20481;-74
2021/12/16 00:37:39;;;;;;;8.65;3.63;;;;;;;17.47;43.03;103086.75;4862121;29;20434;-78
2021/12/16 00:40:07;;;;;;;6.93;3.72;;;;;;;17.47;43.21;103091.44;4862086;29;20034;-73
2021/12/16 00:42:48;;;;;;;6.20;3.50;;;;;;;17.49;43.13;103089.19;4861803;29;20033;-73
2021/12/16 00:48:03;;;;;;;6.70;3.25;;;;;;;17.54;43.20;103080.81;4861538;29;20111;-81
2021/12/16 00:58:09;;;;;;;6.10;4.78;;;;;;;17.62;43.23;103090.34;4861911;29;20033;-74
2021/12/16 01:00:36;;;;;;;7.30;2.92;;;;;;;17.66;42.98;103097.72;4861439;29;20077;-74
2021/12/16 01:03:19;;;;;;;8.63;3.95;;;;;;;17.58;43.30;103095.66;4861460;29;20030;-74
2021/12/16 01:46:58;;;;;;;7.32;3.58;;;;;;;17.50;43.25;103123.19;4859819;29;20065;-75
2021/12/16 01:57:34;;;;;;;6.97;3.47;;;;;;;17.33;43.00;103140.31;4860580;29;20037;-74
2021/12/16 02:00:08;;;;;;;7.30;2.97;;;;;;;17.23;43.09;103135.78;4860579;29;20481;-74
2021/12/16 02:02:45;;;;;;;11.57;4.13;;;;;;;17.18;42.94;103139.44;4844681;29;20089;-75
2021/12/16 02:05:36;;;;;;;5.25;3.20;;;;;;;17.08;43.00;103138.78;4860506;29;20029;-74
2021/12/16 02:10:44;;;;;;;9.20;3.47;;;;;;;16.92;42.83;103149.19;4860776;29;20074;-73
2021/12/16 02:13:43;;;;;;;6.25;3.25;;;;;;;16.84;42.85;103141.59;4860411;29;20508;-77
2021/12/16 02:27:29;;;;;;;5.57;3.35;;;;;;;16.84;42.79;103155.38;4860188;29;20134;-74
2021/12/16 02:35:29;;;;;;;8.15;4.28;;;;;;;17.13;42.93;103150.56;4860490;29;20030;-78
2021/12/16 02:37:55;;;;;;;8.25;3.70;;;;;;;17.18;42.73;103155.19;4860082;29;20036;-74
2021/12/16 02:40:21;;;;;;;6.07;4.20;;;;;;;17.19;42.93;103159.59;4860136;29;20034;-74
2021/12/16 02:48:30;;;;;;;11.48;5.38;;;;;;;17.30;42.73;103163.00;4859886;29;20069;-74
2021/12/16 02:51:05;;;;;;;9.93;5.13;;;;;;;17.22;42.87;103156.22;4860124;29;20026;-74
2021/12/16 02:53:32;;;;;;;10.38;5.00;;;;;;;17.23;42.76;103162.56;4859913;29;20489;-74
2021/12/16 02:55:58;;;;;;;9.43;4.90;;;;;;;17.20;42.92;103164.00;4859973;29;20030;-74
2021/12/16 02:58:25;;;;;;;11.23;5.88;;;;;;;17.19;42.96;103167.88;4863626;29;20381;-74
2021/12/16 03:01:05;;;;;;;12.68;6.45;;;;;;;17.15;42.79;103173.19;4863540;29;20040;-73
2021/12/16 03:03:31;;;;;;;12.02;6.22;;;;;;;17.14;42.78;103171.53;4863609;29;20033;-74
2021/12/16 03:05:59;;;;;;;12.50;6.00;;;;;;;17.13;43.05;103180.13;4863754;29;20038;-74
2021/12/16 03:08:25;;;;;;;9.23;5.57;;;;;;;17.09;43.06;103179.09;4863445;29;20124;-74
2021/12/16 03:11:04;;;;;;;11.35;5.82;;;;;;;17.12;42.84;103175.72;4863416;29;20030;-73
2021/12/16 03:13:57;;;;;;;11.55;5.70;;;;;;;17.07;42.94;103175.78;4863504;29;20120;-73
2021/12/16 03:16:35;;;;;;;13.70;6.25;;;;;;;16.98;42.82;103183.91;4863283;29;20090;-74
2021/12/16 03:22:04;;;;;;;19.15;7.65;;;;;;;16.88;42.74;103186.81;4879566;29;20414;-74
2021/12/16 03:25:01;;;;;;;12.82;6.90;;;;;;;16.80;42.73;103188.31;4850065;29;20049;-74
2021/12/16 03:27:39;;;;;;;11.15;7.78;;;;;;;16.83;42.80;103192.41;4862969;29;20033;-74
2021/12/16 03:30:26;;;;;;;13.10;8.18;;;;;;;16.78;42.85;103190.56;4863148;29;20030;-74
2021/12/16 03:35:51;;;;;;;11.85;6.95;;;;;;;16.70;42.86;103188.44;4863406;29;20086;-74
2021/12/16 03:38:18;;;;;;;17.10;8.52;;;;;;;16.72;42.93;103196.44;4863012;29;20033;-74
2021/12/16 03:40:44;;;;;;;11.35;7.10;;;;;;;16.73;42.95;103198.06;4862883;29;20044;-73
2021/12/16 03:43:17;;;;;;;8.00;6.07;;;;;;;16.58;42.66;103182.47;4862860;29;20029;-74
2021/12/16 03:48:43;;;;;;;11.20;6.53;;;;;;;16.33;42.73;103195.47;4862304;29;20076;-74
2021/12/16 03:51:14;;;;;;;11.60;7.68;;;;;;;16.29;42.63;103194.38;4863027;29;20038;-76
2021/12/16 03:53:42;;;;;;;17.08;7.25;;;;;;;16.29;42.54;103210.94;4862706;29;20037;-73
2021/12/16 03:56:09;;;;;;;18.60;8.10;;;;;;;16.26;42.88;103203.25;4862552;29;20038;-73
2021/12/16 03:58:35;;;;;;;16.67;8.45;;;;;;;16.34;42.65;103212.84;4862533;29;20033;-74
2021/12/16 04:01:06;;;;;;;17.33;9.23;;;;;;;16.31;42.86;103199.63;4862908;29;20034;-73
2021/12/16 04:03:32;;;;;;;15.25;7.78;;;;;;;16.31;42.80;103205.13;4862293;29;20029;-73
2021/12/16 04:05:58;;;;;;;15.77;9.15;;;;;;;16.28;42.67;103209.31;4862502;29;20052;-73
2021/12/16 04:08:24;;;;;;;14.75;6.75;;;;;;;16.24;42.77;103218.44;4861777;29;20045;-74
2021/12/16 04:11:01;;;;;;;15.63;7.85;;;;;;;16.27;42.89;103223.41;4862671;29;20037;-74
2021/12/16 04:13:28;;;;;;;9.48;7.18;;;;;;;16.32;42.71;103223.31;4862261;29;20038;-74
2021/12/16 04:15:53;;;;;;;10.98;6.95;;;;;;;16.36;42.65;103222.47;4862533;29;20029;-81
2021/12/16 04:18:19;;;;;;;10.40;7.25;;;;;;;16.36;42.80;103221.63;4862352;29;20477;-73
2021/12/16 04:20:46;;;;;;;12.68;8.02;;;;;;;16.32;42.78;103226.09;4862157;29;20102;-73
2021/12/16 04:23:12;;;;;;;27.30;8.70;;;;;;;16.30;42.54;103222.81;4862171;29;20438;-74
2021/12/16 04:25:43;;;;;;;19.60;8.88;;;;;;;16.20;42.89;103232.00;4862128;29;20054;-74
2021/12/16 04:28:17;;;;;;;10.63;8.05;;;;;;;16.16;42.69;103232.88;4862073;29;20476;-74
2021/12/16 04:30:43;;;;;;;18.77;9.10;;;;;;;16.18;42.89;103225.16;4845463;29;20538;-73
2021/12/16 04:33:09;;;;;;;14.25;9.25;;;;;;;16.15;42.69;103220.19;4861980;29;20032;-74
2021/12/16 04:35:35;;;;;;;12.68;7.95;;;;;;;16.14;42.83;103226.81;4862015;29;20086;-80
2021/12/16 04:38:03;;;;;;;10.55;7.10;;;;;;;16.17;42.76;103229.84;4861982;29;20520;-73
2021/12/16 04:40:29;;;;;;;11.93;6.63;;;;;;;16.19;42.59;103221.28;4862121;29;20026;-74
2021/12/16 04:43:00;;;;;;;13.88;8.07;;;;;;;16.19;42.86;103232.31;4861854;29;20037;-74
2021/12/16 04:45:27;;;;;;;12.52;8.43;;;;;;;16.24;42.83;103233.06;4861827;29;20054;-74
2021/12/16 04:47:52;;;;;;;15.57;8.10;;;;;;;16.27;42.76;103239.94;4861364;29;20412;-74
2021/12/16 04:50:19;;;;;;;13.00;8.77;;;;;;;16.26;42.87;103239.13;4861641;29;20040;-74
2021/12/16 04:52:45;;;;;;;13.02;9.13;;;;;;;16.34;42.88;103240.44;4861921;29;20458;-74
2021/12/16 04:55:12;;;;;;;19.15;9.70;;;;;;;16.37;42.98;103235.13;4861588;29;20065;-73
2021/12/16 04:57:38;;;;;;;20.10;9.35;;;;;;;16.42;42.93;103242.56;4861879;29;20570;-74
2021/12/16 05:00:10;;;;;;;18.98;9.27;;;;;;;16.40;43.12;103243.94;4861370;29;20026;-74
2021/12/16 05:02:36;;;;;;;14.38;9.43;;;;;;;16.44;43.09;103251.34;4859951;29;20092;-74
2021/12/16 05:05:03;;;;;;;14.82;9.02;;;;;;;16.43;43.15;103257.16;4861459;29;20082;-78
2021/12/16 05:07:28;;;;;;;19.05;9.40;;;;;;;16.48;42.84;103265.41;4844688;29;20040;-74
2021/12/16 05:12:23;;;;;;;16.15;9.10;;;;;;;16.38;43.11;103267.13;4861211;29;20037;-73
2021/12/16 05:14:50;;;;;;;12.65;8.93;;;;;;;16.44;43.26;103259.63;4861164;29;20032;-74
2021/12/16 05:17:27;;;;;;;12.93;8.50;;;;;;;16.30;43.22;103267.75;4861029;29;20374;-73
2021/12/16 05:19:53;;;;;;;12.98;9.07;;;;;;;16.22;43.69;103264.81;4859831;29;20160;-75
2021/12/16 05:25:09;;;;;;;19.17;10.70;;;;;;;16.56;43.16;103268.34;4861283;29;20101;-73
2021/12/16 05:27:35;;;;;;;14.02;9.82;;;;;;;16.59;43.22;103275.22;4861194;29;20079;-73
2021/12/16 05:30:01;;;;;;;17.33;10.68;;;;;;;16.66;43.32;103275.69;4860895;29;20033;-74
2021/12/16 05:32:26;;;;;;;17.63;10.40;;;;;;;16.72;43.38;103284.78;4844348;29;20044;-74
2021/12/16 05:34:52;;;;;;;14.00;9.70;;;;;;;16.90;43.13;103281.22;4860906;29;20131;-74
2021/12/16 05:37:18;;;;;;;17.58;9.90;;;;;;;16.96;43.29;103284.75;4860941;29;20041;-74
2021/12/16 05:39:44;;;;;;;14.98;9.98;;;;;;;17.06;43.43;103290.97;4860774;29;20154;-74
2021/12/16 05:42:10;;;;;;;12.82;9.95;;;;;;;17.15;43.53;103297.50;4860596;29;20037;-74
2021/12/16 05:44:35;;;;;;;15.60;9.43;;;;;;;17.18;43.38;103299.66;4860770;29;20026;-74
2021/12/16 05:47:01;;;;;;;16.23;9.82;;;;;;;17.18;43.59;103294.16;4860465;29;20485;-73
2021/12/16 05:49:27;;;;;;;13.65;9.07;;;;;;;17.17;43.49;103298.03;4860745;29;20071;-74
2021/12/16 05:51:52;;;;;;;14.50;9.15;;;;;;;17.15;43.63;103297.50;4860980;29;20029;-74
2021/12/16 05:54:20;;;;;;;16.73;10.10;;;;;;;17.15;43.63;103300.28;4860835;29;20108;-74
2021/12/16 05:56:47;;;;;;;17.02;10.43;;;;;;;17.19;43.32;103301.31;4860909;29;20029;-73
2021/12/16 05:59:17;;;;;;;20.30;10.38;;;;;;;17.20;43.27;103302.94;4860516;29;20037;-74
2021/12/16 06:01:44;;;;;;;26.60;11.32;;;;;;;17.15;43.44;103307.72;4843823;29;20057;-73
2021/12/16 06:04:10;;;;;;;20.10;11.52;;;;;;;17.08;43.76;103299.00;4860417;29;20033;-76
2021/12/16 06:06:36;;;;;;;21.55;11.32;;;;;;;17.14;43.59;103304.13;4860535;29;20504;-74
2021/12/16 06:09:05;;;;;;;23.63;12.30;;;;;;;17.19;43.69;103309.59;4860284;29;20025;-75
2021/12/16 06:11:32;;;;;;;17.95;12.20;;;;;;;17.23;43.81;103312.59;4860281;29;20034;-74
2021/12/16 06:27:36;;;;;;;36.00;16.27;;;;;;;17.27;44.13;103324.69;4860494;29;20076;-74
2021/12/16 06:30:08;;;;;;;25.15;13.95;;;;;;;17.29;43.90;103321.63;4860206;29;20033;-74
2021/12/16 06:32:33;;;;;;;28.92;15.77;;;;;;;17.28;44.19;103331.88;4865069;29;20053;-74
2021/12/16 06:35:00;;;;;;;27.10;15.25;;;;;;;17.24;44.47;103327.25;4866339;29;20511;-80
2021/12/16 06:37:25;;;;;;;29.98;14.77;;;;;;;17.27;44.39;103327.47;4866264;29;20067;-74
2021/12/16 06:39:52;;;;;;;24.50;13.88;;;;;;;17.30;44.46;103334.31;4866269;29;20025;-74
2021/12/16 06:42:18;;;;;;;26.90;15.45;;;;;;;17.33;44.15;103339.28;4866286;29;20037;-74
2021/12/16 06:44:51;;;;;;;34.50;15.60;;;;;;;17.33;44.42;103342.03;4866160;29;20062;-73
2021/12/16 06:47:22;;;;;;;24.38;14.60;;;;;;;17.41;44.14;103336.69;4866005;29;20045;-72
2021/12/16 06:49:50;;;;;;;31.60;15.15;;;;;;;17.41;44.26;103347.72;4866300;29;20057;-74
2021/12/16 06:52:20;;;;;;;25.73;13.88;;;;;;;17.42;44.52;103354.06;4866266;29;20030;-73
2021/12/16 06:55:03;;;;;;;28.05;14.70;;;;;;;17.43;44.33;103358.47;4866220;29;20034;-73
2021/12/16 07:00:08;;;;;;;19.05;12.55;;;;;;;17.48;44.46;103352.91;4866178;29;20033;-73
2021/12/16 07:02:46;;;;;;;24.98;13.10;;;;;;;17.52;44.33;103353.09;4866193;29;20141;-73
2021/12/16 07:05:15;;;;;;;24.20;12.50;;;;;;;17.53;44.37;103343.69;4866042;29;20040;-73
2021/12/16 07:07:41;;;;;;;20.27;11.70;;;;;;;17.57;44.36;103353.88;4866285;29;20417;-73
2021/12/16 07:10:11;;;;;;;21.42;12.93;;;;;;;17.43;44.62;103353.78;4866078;29;20045;-80
2021/12/16 07:12:39;;;;;;;24.23;13.60;;;;;;;17.50;44.59;103353.41;4865496;29;20033;-74
2021/12/16 07:15:11;;;;;;;18.73;13.52;;;;;;;17.51;44.86;103357.81;4864989;29;20040;-74
2021/12/16 07:17:38;;;;;;;31.55;18.70;;;;;;;17.51;45.03;103357.81;4865875;29;20039;-73
2021/12/16 07:20:07;;;;;;;26.80;16.02;;;;;;;17.61;44.72;103360.47;4865963;29;20053;-74
2021/12/16 07:22:34;;;;;;;19.35;12.93;;;;;;;17.69;44.78;103354.28;4865461;29;20041;-73
2021/12/16 07:25:02;;;;;;;26.55;16.48;;;;;;;17.73;44.82;103366.38;4865892;29;20021;-74
2021/12/16 07:27:28;;;;;;;19.58;12.77;;;;;;;17.88;44.53;103362.59;4865868;29;20110;-74
2021/12/16 07:29:54;;;;;;;19.42;12.48;;;;;;;17.95;44.54;103378.81;4865886;29;20061;-75
2021/12/16 07:32:20;;;;;;;20.35;11.75;;;;;;;17.95;44.80;103370.50;4865864;29;20057;-75
2021/12/16 07:34:45;;;;;;;19.60;12.73;;;;;;;18.07;44.69;103376.44;4865910;29;20036;-74
2021/12/16 07:37:11;;;;;;;14.95;10.57;;;;;;;18.15;44.65;103378.50;4865832;29;20025;-75
2021/12/16 07:39:41;;;;;;;20.23;11.88;;;;;;;18.22;44.89;103378.13;4865746;29;20058;-75
2021/12/16 07:42:11;;;;;;;21.05;10.45;;;;;;;18.27;44.95;103378.03;4864559;29;20068;-75
2021/12/16 07:44:37;;;;;;;18.55;10.10;;;;;;;18.28;45.03;103383.25;4861786;29;20083;-77
2021/12/16 07:47:06;;;;;;;19.63;10.60;;;;;;;18.29;45.28;103393.22;4862561;29;20045;-74
2021/12/16 07:49:36;;;;;;;15.30;10.10;;;;;;;18.38;45.24;103392.53;4873286;29;20114;-74
2021/12/16 07:52:04;;;;;;;14.45;10.48;;;;;;;18.39;45.24;103388.66;4897491;29;20272;-74
2021/12/16 07:54:30;;;;;;;16.33;10.18;;;;;;;18.43;45.49;103401.56;4900012;29;20041;-75
2021/12/16 07:56:58;;;;;;;18.90;9.90;;;;;;;18.51;45.16;103414.75;4899793;29;20029;-74
2021/12/16 07:59:26;;;;;;;17.20;10.77;;;;;;;18.57;45.19;103407.16;4899631;29;20039;-74
2021/12/16 08:01:53;;;;;;;21.50;10.88;;;;;;;18.52;45.42;103408.06;4899518;29;20029;-74
2021/12/16 08:04:27;;;;;;;23.13;10.65;;;;;;;18.69;45.11;103418.59;4899564;29;20043;-75
2021/12/16 08:06:54;;;;;;;16.48;9.68;;;;;;;18.58;45.25;103406.84;4899478;29;20032;-74
2021/12/16 08:09:21;;;;;;;15.43;9.40;;;;;;;18.72;45.26;103415.22;4899407;29;20048;-75
2021/12/16 08:11:50;;;;;;;16.70;9.60;;;;;;;18.73;45.27;103411.31;4899443;29;20032;-76
2021/12/16 08:14:17;;;;;;;14.68;9.52;;;;;;;18.73;45.22;103413.28;4899558;29;20068;-75
2021/12/16 08:16:43;;;;;;;15.43;10.18;;;;;;;18.65;45.56;103420.28;4896724;29;20032;-75
2021/12/16 08:19:09;;;;;;;15.13;9.30;;;;;;;18.73;45.22;103421.59;4880032;29;20029;-75
2021/12/16 08:21:35;;;;;;;16.52;9.98;;;;;;;18.73;45.45;103427.94;4872492;29;20461;-76
2021/12/16 08:24:04;;;;;;;23.33;9.43;;;;;;;18.75;45.04;103425.72;4875052;29;20432;-75
2021/12/16 08:26:31;;;;;;;13.10;8.82;;;;;;;18.77;45.28;103429.00;4880631;29;20065;-76
2021/12/16 08:28:57;;;;;;;20.00;10.00;;;;;;;18.89;45.09;103424.91;4880477;29;20093;-77
2021/12/16 08:31:24;;;;;;;17.35;9.20;;;;;;;18.87;45.17;103427.16;4880844;29;20084;-75
2021/12/16 08:33:50;;;;;;;12.68;8.75;;;;;;;18.84;45.37;103437.72;4880440;29;20029;-75
2021/12/16 08:36:16;;;;;;;17.60;9.25;;;;;;;18.91;45.30;103444.81;4880728;29;20098;-76
2021/12/16 08:38:44;;;;;;;20.67;11.68;;;;;;;18.90;45.34;103443.19;4863723;29;20021;-75
2021/12/16 08:41:17;;;;;;;22.17;10.02;;;;;;;18.98;45.28;103448.03;4880307;29;20141;-75
2021/12/16 08:43:44;;;;;;;18.98;8.80;;;;;;;19.05;45.05;103454.00;4880324;29;20022;-75
2021/12/16 08:46:13;;;;;;;19.25;9.43;;;;;;;19.01;45.36;103464.03;4880474;29;20093;-75
2021/12/16 08:48:43;;;;;;;20.77;9.70;;;;;;;19.09;45.11;103460.56;4879675;29;20052;-76
2021/12/16 08:51:10;;;;;;;16.20;8.85;;;;;;;19.08;45.23;103462.50;4880339;29;20029;-80
2021/12/16 08:53:36;;;;;;;23.88;10.52;;;;;;;19.16;45.10;103465.69;4880180;29;20022;-75
2021/12/16 08:56:05;;;;;;;18.25;9.40;;;;;;;19.08;45.33;103475.53;4879964;29;20025;-75
2021/12/16 08:58:31;;;;;;;20.90;10.23;;;;;;;19.01;45.56;103475.94;4879692;29;20413;-76
2021/12/16 09:01:03;;;;;;;19.25;8.85;;;;;;;19.12;45.27;103474.63;4879697;29;20485;-75
2021/12/16 09:03:30;;;;;;;17.05;9.18;;;;;;;19.07;45.39;103480.25;4879539;29;20425;-79
2021/12/16 09:05:55;;;;;;;20.73;9.85;;;;;;;19.17;45.31;103493.09;4878937;29;20044;-81
2021/12/16 09:08:21;;;;;;;12.88;8.25;;;;;;;19.22;45.27;103486.66;4884542;29;20493;-81
2021/12/16 09:10:47;;;;;;;16.48;8.82;;;;;;;19.31;45.01;103493.94;4881733;29;20115;-81
2021/12/16 09:13:14;;;;;;;18.75;8.60;;;;;;;19.25;45.08;103494.34;4898451;29;20028;-80
2021/12/16 09:15:54;;;;;;;17.30;10.00;;;;;;;19.15;45.50;103491.78;4880156;29;20093;-75
2021/12/16 09:18:27;;;;;;;20.55;9.88;;;;;;;19.17;45.34;103498.66;4879450;29;20037;-77
2021/12/16 09:20:54;;;;;;;13.27;8.02;;;;;;;19.30;45.24;103497.84;4879450;29;20403;-76
2021/12/16 09:23:20;;;;;;;13.63;9.50;;;;;;;19.29;45.05;103495.41;4862736;29;20037;-75
2021/12/16 09:25:48;;;;;;;19.20;9.43;;;;;;;19.39;45.10;103496.00;4879488;29;20024;-74
2021/12/16 09:28:15;;;;;;;15.70;9.35;;;;;;;19.45;44.91;103493.97;4879447;29;20033;-74
2021/12/16 09:30:41;;;;;;;20.50;10.30;;;;;;;19.38;45.24;103497.16;4879255;29;20025;-74
2021/12/16 09:33:13;;;;;;;16.42;9.38;;;;;;;19.53;44.72;103501.56;4879173;29;20515;-75
2021/12/16 09:35:40;;;;;;;17.20;9.02;;;;;;;19.56;44.88;103494.56;4879332;29;20025;-75
2021/12/16 09:38:09;;;;;;;15.95;8.32;;;;;;;19.48;45.06;103493.34;4879254;29;20029;-78
2021/12/16 09:40:40;;;;;;;16.40;9.60;;;;;;;19.50;45.14;103502.19;4879453;29;20029;-74
2021/12/16 09:43:06;;;;;;;17.60;8.30;;;;;;;19.55;45.10;103501.25;4879125;29;20037;-75
2021/12/16 09:45:32;;;;;;;16.23;8.68;;;;;;;19.56;45.08;103506.50;4878887;29;20036;-74
2021/12/16 09:47:58;;;;;;;20.92;9.57;;;;;;;19.68;44.84;103508.81;4878311;29;20045;-74
2021/12/16 09:50:28;;;;;;;16.92;9.52;;;;;;;19.57;45.01;103510.97;4878760;29;20017;-76
2021/12/16 09:52:55;;;;;;;17.13;8.82;;;;;;;19.68;44.84;103509.63;4878723;29;20025;-75
2021/12/16 09:55:21;;;;;;;19.73;8.50;;;;;;;19.74;44.74;103523.41;4878590;29;20124;-74
2021/12/16 09:57:47;;;;;;;14.98;8.48;;;;;;;19.79;44.65;103524.09;4878610;29;20500;-75
2021/12/16 10:00:18;;;;;;;15.77;8.38;;;;;;;19.76;44.79;103526.69;4878613;29;20028;-81
2021/12/16 10:02:44;;;;;;;12.82;8.00;;;;;;;19.85;44.61;103522.88;4879002;29;20041;-77
2021/12/16 10:05:10;;;;;;;18.27;8.70;;;;;;;19.83;44.80;103516.81;4897199;29;20639;-75
2021/12/16 10:07:36;;;;;;;13.90;7.00;;;;;;;19.87;44.73;103519.78;4896992;29;20031;-80
2021/12/16 10:10:25;;;;;;;12.80;6.68;;;;;;;19.91;44.87;103521.63;4897453;29;20033;-80
2021/12/16 10:12:54;;;;;;;15.75;7.28;;;;;;;19.85;44.81;103528.41;4897432;29;20031;-80
2021/12/16 10:18:04;;;;;;;14.43;6.70;;;;;;;19.91;44.70;103529.94;4876570;29;20071;-74
2021/12/16 10:20:33;;;;;;;14.93;6.28;;;;;;;20.06;44.62;103539.91;4871180;29;20562;-76
2021/12/16 10:23:06;;;;;;;14.70;6.82;;;;;;;20.02;44.70;103535.28;4862795;29;20029;-75
2021/12/16 10:25:40;;;;;;;16.02;6.78;;;;;;;20.10;44.44;103538.19;4846220;29;20503;-75
2021/12/16 10:28:34;;;;;;;13.65;6.60;;;;;;;20.12;44.64;103546.19;4863198;29;20073;-75
2021/12/16 10:31:06;;;;;;;11.57;7.22;;;;;;;20.15;44.44;103548.31;4862729;29;20051;-75
2021/12/16 10:33:44;;;;;;;11.98;6.47;;;;;;;20.14;44.41;103550.28;4862972;29;20071;-75
2021/12/16 10:36:24;;;;;;;13.00;6.85;;;;;;;20.14;44.56;103557.78;4863196;29;20057;-75
2021/12/16 10:38:55;;;;;;;;;;;;;;;20.22;44.54;103562.59;4863636;29;20625;-74
2021/12/16 10:41:53;;;;;;;11.75;6.63;;;;;;;20.25;44.37;103556.41;4862716;29;20004;-75
2021/12/16 10:44:23;;;;;;;19.38;7.22;;;;;;;20.30;44.51;103559.09;4857158;29;20044;-75
2021/12/16 10:46:59;;;;;;;11.95;6.50;;;;;;;20.34;44.43;103560.13;4861850;29;20080;-76
2021/12/16 10:49:52;;;;;;;10.32;6.35;;;;;;;20.29;44.26;103573.28;4861477;29;20052;-77
2021/12/16 10:52:26;;;;;;;13.20;5.97;;;;;;;20.44;44.22;103573.00;4871422;29;20043;-76
2021/12/16 10:54:53;;;;;;;14.35;6.30;;;;;;;20.47;44.09;103573.16;4861923;29;20049;-76
2021/12/16 10:57:30;;;;;;;12.88;5.75;;;;;;;20.52;44.06;103563.91;4862421;29;20029;-76
2021/12/16 11:00:09;;;;;;;8.60;5.10;;;;;;;20.41;44.35;103568.84;4862953;29;20393;-76
2021/12/16 11:02:38;;;;;;;12.70;5.97;;;;;;;20.42;44.35;103575.22;4868825;29;20138;-80
2021/12/16 11:05:13;;;;;;;11.57;6.30;;;;;;;20.45;44.34;103578.22;4869506;29;20401;-78
2021/12/16 11:07:44;;;;;;;8.60;5.57;;;;;;;20.64;44.00;103572.53;4852715;29;20029;-76
2021/12/16 11:10:18;;;;;;;9.63;5.80;;;;;;;20.66;43.81;103572.22;4858749;29;20622;-75
2021/12/16 11:12:51;;;;;;;8.05;5.50;;;;;;;20.73;43.75;103575.38;4858714;29;20045;-75
2021/12/16 11:15:31;;;;;;;9.68;5.35;;;;;;;20.71;43.78;103575.69;4858993;29;20108;-75
2021/12/16 11:18:02;;;;;;;13.05;5.07;;;;;;;20.68;43.81;103576.31;4859330;29;20034;-75
2021/12/16 11:20:46;;;;;;;9.45;5.28;;;;;;;20.69;43.96;103569.63;4862857;29;20025;-81
2021/12/16 11:23:17;;;;;;;9.68;5.45;;;;;;;20.76;43.75;103569.19;4863210;29;20049;-76
2021/12/16 11:25:51;;;;;;;11.13;5.38;;;;;;;20.80;43.67;103559.09;4861758;29;20034;-76
2021/12/16 11:28:16;;;;;;;8.52;4.95;;;;;;;20.85;43.51;103569.25;4861465;29;20388;-76
2021/12/16 11:31:00;;;;;;;8.63;5.40;;;;;;;20.82;43.52;103565.16;4861576;29;20090;-79
2021/12/16 11:33:46;;;;;;;7.45;4.72;;;;;;;20.91;43.29;103573.56;4861524;29;20056;-80
2021/12/16 11:36:15;;;;;;;13.02;5.97;;;;;;;20.95;43.29;103575.41;4861527;29;20158;-75
2021/12/16 11:38:45;;;;;;;7.85;4.55;;;;;;;20.96;43.36;103565.09;4861374;29;20057;-75
2021/12/16 11:41:12;;;;;;;;;;;;;;;20.98;43.37;103571.97;4862823;29;20041;-75
2021/12/16 11:43:53;;;;;;;6.50;5.00;;;;;;;21.00;43.08;103568.88;4863092;29;19916;-75
2021/12/16 11:46:26;;;;;;;8.60;5.10;;;;;;;20.95;43.21;103567.06;4863090;29;20163;-75
2021/12/16 11:48:57;;;;;;;9.30;5.03;;;;;;;21.08;43.14;103567.28;4881515;29;20033;-75
2021/12/16 11:51:32;;;;;;;9.15;6.20;;;;;;;21.09;43.09;103572.56;4871284;29;20520;-75
2021/12/16 11:54:12;;;;;;;9.52;4.93;;;;;;;21.13;42.98;103581.06;4865287;29;20247;-79
2021/12/16 11:56:37;;;;;;;12.73;6.30;;;;;;;21.22;42.83;103574.41;4875074;29;20033;-81
2021/12/16 11:59:04;;;;;;;10.32;5.10;;;;;;;21.18;42.99;103584.56;4880135;29;20173;-75
2021/12/16 12:01:30;;;;;;;9.88;5.28;;;;;;;21.24;42.79;103576.91;4879839;29;20037;-76
2021/12/16 12:04:08;;;;;;;9.90;4.93;;;;;;;21.24;42.83;103583.28;4879877;29;20021;-78
2021/12/16 12:06:36;;;;;;;12.20;5.30;;;;;;;21.28;42.81;103580.72;4879718;29;20032;-75
2021/12/16 12:09:05;;;;;;;9.52;5.85;;;;;;;21.22;42.69;103587.50;4881969;29;20036;-75
2021/12/16 12:11:34;;;;;;;13.13;7.25;;;;;;;21.31;42.70;103588.41;4880115;29;20033;-76
2021/12/16 12:14:08;;;;;;;9.55;5.13;;;;;;;21.38;42.36;103585.19;4880810;29;20032;-75
2021/12/16 12:16:45;;;;;;;8.07;4.72;;;;;;;21.16;42.54;103586.84;4880871;29;20142;-75
2021/12/16 12:19:13;;;;;;;10.10;5.45;;;;;;;21.27;42.40;103592.94;4880646;29;20081;-76
2021/12/16 12:21:45;;;;;;;12.05;5.32;;;;;;;21.29;42.41;103591.50;4869253;29;20482;-76
2021/12/16 12:24:16;;;;;;;9.93;4.68;;;;;;;21.49;42.28;103597.69;4882809;29;20020;-75
2021/12/16 12:26:53;;;;;;;7.65;4.70;;;;;;;21.46;42.23;103598.31;4888860;29;20021;-76
2021/12/16 12:29:49;;;;;;;9.43;5.95;;;;;;;21.37;42.17;103603.00;4884948;29;20029;-78
2021/12/16 12:32:38;;;;;;;8.90;4.80;;;;;;;21.42;42.16;103605.66;4871313;29;20049;-75
2021/12/16 12:35:07;;;;;;;10.77;5.57;;;;;;;21.46;41.95;103603.88;4878981;29;20048;-82
2021/12/16 12:37:36;;;;;;;11.68;5.60;;;;;;;21.44;42.25;103606.97;4879317;29;20353;-76
2021/12/16 12:40:37;;;;;;;7.20;4.68;;;;;;;21.33;41.86;103602.84;4879256;29;20629;-75
2021/12/16 12:43:04;;;;;;;6.80;4.63;;;;;;;21.44;42.11;103604.19;4839124;29;20037;-76
2021/12/16 12:45:35;;;;;;;9.10;4.28;;;;;;;21.36;42.37;103602.19;4878892;29;20033;-75
2021/12/16 12:48:04;;;;;;;13.25;6.97;;;;;;;21.41;42.03;103604.03;4878035;29;20060;-77
2021/12/16 12:50:36;;;;;;;12.45;8.25;;;;;;;21.42;41.86;103602.88;4878448;29;20039;-76
2021/12/16 12:53:13;;;;;;;7.22;3.95;;;;;;;21.51;41.56;103603.75;4878603;29;20097;-76
2021/12/16 12:55:39;;;;;;;6.43;4.60;;;;;;;21.55;41.68;103604.78;4878331;29;20033;-75
2021/12/16 12:58:09;;;;;;;6.75;4.45;;;;;;;21.47;41.72;103606.38;4878116;29;20025;-76
2021/12/16 13:00:40;;;;;;;5.15;3.90;;;;;;;21.51;41.60;103612.09;4879165;29;20038;-75
2021/12/16 13:03:17;;;;;;;7.38;4.18;;;;;;;21.53;41.49;103610.63;4880067;29;20041;-80
2021/12/16 13:05:51;;;;;;;9.57;4.78;;;;;;;21.40;41.38;103614.34;4853757;29;20065;-76
2021/12/16 13:08:26;;;;;;;6.30;4.22;;;;;;;21.50;41.57;103622.41;4846712;29;20078;-80
2021/12/16 13:10:56;;;;;;;8.57;3.80;;;;;;;21.49;41.53;103617.16;4861465;29;20033;-75
2021/12/16 13:16:13;;;;;;;10.10;4.57;;;;;;;21.51;41.52;103623.22;4861149;29;20037;-76
2021/12/16 13:24:42;;;;;;;5.78;3.85;;;;;;;21.51;41.31;103621.25;4861273;29;20098;-76
2021/12/16 13:27:21;;;;;;;8.65;5.20;;;;;;;21.51;41.45;103623.22;4844501;29;20045;-76
2021/12/16 13:32:40;;;;;;;8.15;3.65;;;;;;;21.62;41.11;103626.56;4860973;29;20029;-76
2021/12/16 13:35:34;;;;;;;6.15;4.20;;;;;;;21.57;41.16;103624.75;4860932;29;20033;-76
2021/12/16 13:38:05;;;;;;;6.50;3.92;;;;;;;21.50;41.19;103622.41;4860103;29;20037;-76
2021/12/16 13:40:35;;;;;;;9.20;5.00;;;;;;;21.48;41.11;103627.47;4843839;29;20025;-76
2021/12/16 13:43:12;;;;;;;7.03;3.85;;;;;;;21.49;40.82;103623.53;4860534;29;20030;-76
2021/12/16 14:04:13;;;;;;;5.47;3.50;;;;;;;21.45;40.44;103624.50;4879158;29;20497;-76
2021/12/16 14:07:23;;;;;;;6.82;3.50;;;;;;;21.49;40.45;103631.91;4854799;29;20472;-76
2021/12/16 14:10:35;;;;;;;6.28;3.90;;;;;;;21.39;40.66;103629.38;4878772;29;20037;-77
2021/12/16 14:25:18;;;;;;;7.15;4.30;;;;;;;21.38;40.19;103627.72;4862193;29;20089;-75
2021/12/16 14:39:03;;;;;;;5.78;3.33;;;;;;;21.32;40.11;103645.69;4862334;29;20026;-75
2021/12/16 14:45:09;;;;;;;7.50;4.18;;;;;;;21.28;40.25;103647.44;4877540;29;20484;-77
2021/12/16 14:47:11;;;;;;;62.85;44.03;;;;;;;21.30;40.13;103647.94;4878068;29;20127;-76
2021/12/16 14:49:43;;;;;;;9.65;7.15;;;;;;;21.22;40.22;103654.25;4862541;29;20052;-77
2021/12/16 14:52:26;;;;;;;9.88;6.05;;;;;;;21.46;39.51;103649.22;4861733;29;20040;-79
2021/12/16 14:54:55;;;;;;;8.52;5.13;;;;;;;21.45;39.54;103655.09;4866307;29;20037;-76
2021/12/16 14:57:36;;;;;;;7.15;4.57;;;;;;;21.40;39.37;103658.03;4858868;29;20033;-76
2021/12/16 15:00:13;;;;;;;7.25;5.43;;;;;;;21.48;39.42;103652.50;4882150;29;20040;-76